Nearby METAR Reports

 

LEVT - Vitoria, Spain
Distance from station: O 10km
Actualización: 06/12/2019 03:30
Patches of fog, Parcialmente nuboso
Patches of fog, Parcialmente nuboso
 Viento del varies
Viento: varies 2 km/h
Temperatura: 0°C
Rocío: 0°C
Humedad: 100%
Barómetro: 1023 hPa
Resumen: Patches of Fog
Clouds: Parcialmente nuboso
Visibility: 3 km
Cloud details: Parcialmente nuboso 30 m
2019/12/06 02:30 LEVT 060230Z VRB01KT 3000 R04/0750N R22/1000N BCFG SCT001 M00/M00 Q1023
LELO - Logrono/Agoncill, Spain
Distance from station: SSE 51km
Actualización: 06/12/2019 03:30
Mist, Despejado
Mist, Despejado
 Viento del OSO
Viento: OSO 7 km/h
Temperatura: 2°C
Wind Chill: 0°C
Rocío: 2°C
Humedad: 100%
Barómetro: 1024 hPa
Resumen: Mist
Clouds: Despejado
Visibility: 5 km
2019/12/06 02:30 LELO 060230Z AUTO 25004KT 4900 BR NCD 02/02 Q1024
LEBB - Bilbao/Sondica, Spain
Distance from station: NNO 54km
Actualización: 06/12/2019 03:30
Despejado
Despejado
 Viento del ENE
Viento: ENE 6 km/h
Temperatura: 6°C
Rocío: 6°C
Humedad: 100%
Barómetro: 1024 hPa
Clouds: Despejado
Visibility: 6 km
2019/12/06 02:30 LEBB 060230Z AUTO 07003KT 030V130 6000 NCD 06/06 Q1024
 
LEPP - Pamplona/Noain, Spain
Distance from station: E 78km
Actualización: 06/12/2019 03:30
Despejado
Despejado
 Viento del varies
Viento: varies 2 km/h
Temperatura: 2°C
Rocío: 2°C
Humedad: 100%
Barómetro: 1024 hPa
Clouds: Despejado
Visibility: 10 km
2019/12/06 02:30 LEPP 060230Z AUTO VRB01KT 9999 NCD 02/02 Q1024
LESO - San Sebastian/Fu, Spain
Distance from station: NE 85km
Actualización: 06/12/2019 03:30
Few Clouds
Few Clouds
 Viento del S
Viento: S 6 km/h
Temperatura: 7°C
Rocío: 6°C
Humedad: 93%
Barómetro: 1024 hPa
Clouds: Few Clouds
Visibility: 10 km
Cloud details: Few Clouds 823 m
2019/12/06 02:30 LESO 060230Z AUTO 18003KT 160V240 9999 FEW027 07/06 Q1024
LEBG - Burgos/Villafria, Spain
Distance from station: SO 100km
Actualización: 06/12/2019 03:30

 Viento del varies
Viento: varies 2 km/h
Visibility: 0 km
2019/12/06 02:30 LEBG 060230Z AUTO VRB01KT 0300 0150 R22/0800N R04/0125N FZFG VV001 00/00 Q1023
 
LFBZ - Biarritz/Anglet, France
Distance from station: NE 111km
Actualización: 06/12/2019 03:30
Despejado
Despejado
 Viento del S
Viento: S 7 km/h
Temperatura: 6°C
Wind Chill: 4°C
Rocío: 6°C
Humedad: 100%
Barómetro: 1024 hPa
Resumen: Despejado
Visibility: greater than 10 km
2019/12/06 02:30 LFBZ 060230Z AUTO 19004KT CAVOK 06/06 Q1024
LEXJ - Santander/Paraya, Spain
Distance from station: ONO 117km
Actualización: 06/12/2019 03:30
Mist, Patches of, Niebla, Despejado
Mist, Patches of, Niebla, Despejado
 Viento del ESE
Viento: ESE 6 km/h
Temperatura: 6°C
Rocío: 6°C
Humedad: 100%
Barómetro: 1023 hPa
Resumen: Mist, Patches of, Niebla
Clouds: Despejado
Visibility: 5 km
2019/12/06 02:30 LEXJ 060230Z AUTO 12003KT 080V160 5000 0900W BR BCFG NCD 06/06 Q1023